Terminal Aerodrome Forecast
Issued by NWS

Home | Current Version | Previous Version | Text Only | Print | Product List | Glossary On
Versions: 1 2 3 4 5 6 7 8 9 10 11 12 13 14 15 16 17
000
FTUS43 KIND 250520
TAFBMG
TAF
KBMG 250520Z 2506/2606 29003KT P6SM FEW040 SCT250
      TEMPO 2507/2508 32008G18KT FEW015 SCT040
     FM250900 32003KT 4SM BR SCT040
     FM251500 23005KT P6SM VCTS BKN035CB
     FM252200 28004KT P6SM VCTS BKN040CB
     FM260300 35002KT P6SM SCT040 BKN250=

USA.gov is the U.S. government's official web portal to all federal, state and local government web resources and services.